createdAt,value
2022-11-25T00:04:23.365Z,3.08
2022-11-25T00:09:27.631Z,4.90
2022-11-25T00:14:31.662Z,3.75
2022-11-25T00:19:37.388Z,3.03
2022-11-25T00:24:41.628Z,4.75
2022-11-25T00:29:46.018Z,3.22
2022-11-25T00:34:51.630Z,3.72
2022-11-25T00:39:56.056Z,4.20
2022-11-25T00:45:00.086Z,6.68
2022-11-25T00:50:06.738Z,4.32
2022-11-25T00:55:11.007Z,2.58
2022-11-25T01:00:15.797Z,3.47
2022-11-25T01:05:21.834Z,2.78
2022-11-25T01:10:27.790Z,4.28
2022-11-25T01:15:31.793Z,2.92
2022-11-25T01:20:37.191Z,6.95
2022-11-25T01:25:41.715Z,3.75
2022-11-25T01:30:45.751Z,3.75
2022-11-25T01:35:52.281Z,4.05
2022-11-25T01:40:56.268Z,5.32
2022-11-25T01:46:07.112Z,7.47
2022-11-25T01:51:21.308Z,4.20
2022-11-25T01:56:26.762Z,4.40
2022-11-25T02:01:30.809Z,7.90
2022-11-25T02:06:42.110Z,2.47
2022-11-25T02:11:47.151Z,4.40
2022-11-25T02:16:51.307Z,4.65
2022-11-25T02:22:04.500Z,5.00
2022-11-25T02:27:10.403Z,4.85
2022-11-25T02:32:14.657Z,4.28
2022-11-25T02:37:22.681Z,5.00
2022-11-25T02:42:29.779Z,3.40
2022-11-25T02:47:35.084Z,4.43
2022-11-25T02:52:39.669Z,3.47
2022-11-25T02:57:45.085Z,4.55
2022-11-25T03:02:49.759Z,4.53
2022-11-25T03:07:53.867Z,3.55
2022-11-25T03:13:00.496Z,5.57
2022-11-25T03:18:05.343Z,6.40
2022-11-25T03:23:10.305Z,4.78
2022-11-25T03:28:15.890Z,5.03
2022-11-25T03:33:20.677Z,4.90
2022-11-25T03:38:24.877Z,5.60
2022-11-25T03:43:31.592Z,5.40
2022-11-25T03:48:35.753Z,3.75
2022-11-25T03:53:40.100Z,4.20
2022-11-25T03:58:47.721Z,4.47
2022-11-25T04:03:54.736Z,5.45
2022-11-25T04:08:58.924Z,5.25
2022-11-25T04:14:04.995Z,4.00
2022-11-25T04:19:10.137Z,3.20
2022-11-25T04:24:15.755Z,4.82
2022-11-25T04:29:22.830Z,4.30
2022-11-25T04:34:27.139Z,3.55
2022-11-25T04:39:31.912Z,2.88
2022-11-25T04:49:46.538Z,2.72
2022-11-25T04:54:51.663Z,3.97
2022-11-25T04:59:58.243Z,3.03
2022-11-25T05:05:03.276Z,6.15
2022-11-25T05:10:09.068Z,2.33
2022-11-25T05:15:19.694Z,4.90
2022-11-25T05:20:26.459Z,3.15
2022-11-25T05:25:30.687Z,4.30
2022-11-25T05:30:54.482Z,12.23
2022-11-25T05:36:00.640Z,7.47
2022-11-25T05:41:12.335Z,7.10
2022-11-25T05:46:19.915Z,7.97
2022-11-25T05:51:29.466Z,11.18
2022-11-25T05:56:34.572Z,6.35
2022-11-25T06:02:06.368Z,12.43
2022-11-25T06:07:10.753Z,10.25
2022-11-25T06:12:16.554Z,10.32
2022-11-25T06:22:44.085Z,8.18
2022-11-25T06:28:11.788Z,5.03
2022-11-25T06:33:16.991Z,8.10
2022-11-25T06:38:24.534Z,8.48
2022-11-25T06:43:29.741Z,3.55
2022-11-25T06:48:35.550Z,3.17
2022-11-25T06:53:40.976Z,4.03
2022-11-25T06:58:46.000Z,6.03
2022-11-25T07:03:54.221Z,5.20
2022-11-25T07:08:58.698Z,7.60
2022-11-25T07:14:11.736Z,6.22
2022-11-25T07:19:19.256Z,4.45
2022-11-25T07:24:23.475Z,8.45
2022-11-25T07:34:53.844Z,6.10
2022-11-25T07:40:00.235Z,6.32
2022-11-25T07:45:04.875Z,6.85
2022-11-25T07:50:25.331Z,7.60
2022-11-25T07:55:30.788Z,5.18
2022-11-25T08:00:35.188Z,4.45
2022-11-25T08:05:42.847Z,4.95
2022-11-25T08:10:46.903Z,5.38
2022-11-25T08:15:50.964Z,6.75
2022-11-25T08:21:00.162Z,8.35
2022-11-25T08:26:05.387Z,4.75
2022-11-25T08:31:11.706Z,5.13
2022-11-25T08:36:18.360Z,14.38
2022-11-25T08:41:25.814Z,9.60
2022-11-25T08:46:33.445Z,10.88
2022-11-25T08:51:40.184Z,12.48
2022-11-25T08:56:44.646Z,1.95
2022-11-25T09:01:49.716Z,3.90
2022-11-25T09:06:55.423Z,4.10
2022-11-25T09:12:00.489Z,3.03
2022-11-25T09:17:09.009Z,3.35
2022-11-25T09:22:14.866Z,2.70
2022-11-25T09:27:18.939Z,3.42
2022-11-25T09:32:23.299Z,1.85
2022-11-25T09:37:29.066Z,1.73
2022-11-25T09:43:05.827Z,1.30
2022-11-25T09:48:35.692Z,8.30
2022-11-25T09:58:53.641Z,4.22
2022-11-25T10:04:03.383Z,2.13
2022-11-25T10:09:14.664Z,3.00
2022-11-25T10:14:28.274Z,3.50
2022-11-25T10:19:44.879Z,1.08
2022-11-25T10:24:52.425Z,9.65
2022-11-25T10:30:06.007Z,8.13
2022-11-25T10:35:20.684Z,1.83
2022-11-25T10:40:26.123Z,4.68
2022-11-25T10:45:34.694Z,3.40
2022-11-25T10:50:51.918Z,3.53
2022-11-25T10:56:03.632Z,5.50
2022-11-25T11:01:15.528Z,3.28
2022-11-25T11:06:39.039Z,7.03
2022-11-25T11:11:50.348Z,5.85
2022-11-25T11:16:56.312Z,3.53
2022-11-25T11:22:17.768Z,2.58
2022-11-25T11:27:25.896Z,5.25
2022-11-25T11:32:30.514Z,2.45
2022-11-25T11:37:42.781Z,3.25
2022-11-25T11:43:02.127Z,2.17
2022-11-25T11:48:18.780Z,2.03
2022-11-25T11:53:31.671Z,3.20
2022-11-25T11:59:00.659Z,6.97
2022-11-25T12:04:19.052Z,3.47
2022-11-25T12:09:27.073Z,5.80
2022-11-25T12:14:41.084Z,5.35
2022-11-25T12:19:53.617Z,7.53
2022-11-25T12:25:08.896Z,6.15
2022-11-25T12:30:17.525Z,4.50
2022-11-25T12:35:35.106Z,7.03
2022-11-25T12:40:45.851Z,5.53
2022-11-25T12:46:03.061Z,4.05
2022-11-25T12:51:17.907Z,5.75
2022-11-25T12:56:28.901Z,16.17
2022-11-25T13:01:58.311Z,11.77
2022-11-25T13:07:30.460Z,21.90
2022-11-25T13:12:45.392Z,14.77
2022-11-25T13:17:56.323Z,22.35
2022-11-25T13:23:04.472Z,12.07
2022-11-25T13:28:30.458Z,7.78
2022-11-25T13:34:02.139Z,7.70
2022-11-25T13:39:14.463Z,8.77
2022-11-25T13:44:32.024Z,9.90
2022-11-25T13:49:51.967Z,11.45
2022-11-25T13:54:58.372Z,11.15
2022-11-25T14:00:07.305Z,12.35
2022-11-25T14:05:38.359Z,14.20
2022-11-25T14:10:47.418Z,8.48
2022-11-25T14:16:08.016Z,12.45
2022-11-25T14:21:30.925Z,4.78
2022-11-25T14:26:49.895Z,6.63
2022-11-25T14:32:01.326Z,7.20
2022-11-25T14:37:14.552Z,13.50
2022-11-25T14:42:23.595Z,9.35
2022-11-25T14:47:33.283Z,10.65
2022-11-25T14:52:43.942Z,11.75
2022-11-25T14:57:48.106Z,6.93
2022-11-25T15:02:56.895Z,30.38
2022-11-25T15:08:05.070Z,26.40
2022-11-25T15:13:16.198Z,17.02
2022-11-25T15:18:23.254Z,19.55
2022-11-25T15:23:36.825Z,22.38
2022-11-25T15:28:42.020Z,28.88
2022-11-25T15:33:47.140Z,48.20
2022-11-25T15:38:53.921Z,28.70
2022-11-25T15:44:02.358Z,15.48
2022-11-25T15:49:16.765Z,8.47
2022-11-25T15:54:25.960Z,17.98
2022-11-25T15:59:51.277Z,18.33
2022-11-25T16:05:15.513Z,24.42
2022-11-25T16:10:23.465Z,13.35
2022-11-25T16:15:46.429Z,9.57
2022-11-25T16:20:53.468Z,8.02
2022-11-25T16:26:02.437Z,7.63
2022-11-25T16:31:06.916Z,11.90
2022-11-25T16:36:11.174Z,7.28
2022-11-25T16:41:25.653Z,6.93
2022-11-25T16:46:29.838Z,13.48
2022-11-25T16:51:33.961Z,20.55
2022-11-25T16:56:43.231Z,10.70
2022-11-25T17:07:24.363Z,8.35
2022-11-25T17:12:27.099Z,16.30
2022-11-25T17:17:31.383Z,23.02
2022-11-25T17:22:39.578Z,13.23
2022-11-25T17:27:49.112Z,15.57
2022-11-25T17:32:58.480Z,17.27
2022-11-25T17:43:08.468Z,23.65
2022-11-25T17:48:14.357Z,12.20
2022-11-25T17:53:18.344Z,16.42
2022-11-25T17:58:26.438Z,41.28
2022-11-25T18:03:30.557Z,17.05
2022-11-25T18:08:36.050Z,20.48
2022-11-25T18:13:42.749Z,30.02
2022-11-25T18:18:49.165Z,23.52
2022-11-25T18:23:53.748Z,22.27
2022-11-25T18:29:00.199Z,13.75
2022-11-25T18:34:04.149Z,25.63
2022-11-25T18:39:08.067Z,11.68
2022-11-25T18:44:25.911Z,11.40
2022-11-25T18:49:30.615Z,26.35
2022-11-25T18:54:35.485Z,16.05
2022-11-25T18:59:43.690Z,8.02
2022-11-25T19:04:48.092Z,12.85
2022-11-25T19:09:52.655Z,16.20
2022-11-25T19:14:59.003Z,14.38
2022-11-25T19:20:03.974Z,16.25
2022-11-25T19:25:09.500Z,19.75
2022-11-25T19:30:38.044Z,25.60
2022-11-25T19:35:42.463Z,17.55
2022-11-25T19:40:49.816Z,15.75
2022-11-25T19:46:06.221Z,19.63
2022-11-25T19:51:13.457Z,18.63
2022-11-25T19:56:24.186Z,21.45
2022-11-25T20:01:57.304Z,11.35
2022-11-25T20:07:07.133Z,14.05
2022-11-25T20:12:22.177Z,22.60
2022-11-25T20:17:29.868Z,14.63
2022-11-25T20:22:37.775Z,12.88
2022-11-25T20:27:43.575Z,14.82
2022-11-25T20:32:49.357Z,34.50
2022-11-25T20:37:58.224Z,29.77
2022-11-25T20:43:02.914Z,32.42
2022-11-25T20:48:12.736Z,6.20
2022-11-25T20:53:18.316Z,11.65
2022-11-25T20:58:24.427Z,9.13
2022-11-25T21:03:30.057Z,24.40
2022-11-25T21:08:34.061Z,19.60
2022-11-25T21:13:38.001Z,18.08
2022-11-25T21:18:44.178Z,11.13
2022-11-25T21:23:49.697Z,12.07
2022-11-25T21:28:56.074Z,17.48
2022-11-25T21:34:02.810Z,10.32
2022-11-25T21:39:10.030Z,12.32
2022-11-25T21:44:22.965Z,12.52
2022-11-25T21:49:29.183Z,21.55
2022-11-25T21:54:33.574Z,14.35
2022-11-25T21:59:37.558Z,17.05
2022-11-25T22:04:42.955Z,18.85
2022-11-25T22:09:48.018Z,21.65
2022-11-25T22:14:52.422Z,24.75
2022-11-25T22:19:58.697Z,25.30
2022-11-25T22:25:04.950Z,38.85
2022-11-25T22:30:16.378Z,18.48
2022-11-25T22:35:22.451Z,20.52
2022-11-25T22:40:26.745Z,26.73
2022-11-25T22:45:33.424Z,30.67
2022-11-25T22:50:39.524Z,22.42
2022-11-25T22:55:46.214Z,25.13
2022-11-25T23:00:52.808Z,15.35
2022-11-25T23:05:58.949Z,9.70
2022-11-25T23:11:03.334Z,12.52
2022-11-25T23:16:07.883Z,8.52
2022-11-25T23:21:17.795Z,17.17
2022-11-25T23:26:21.974Z,8.60
2022-11-25T23:31:26.460Z,10.48
2022-11-25T23:36:41.180Z,13.65
2022-11-25T23:41:45.802Z,11.90
2022-11-25T23:46:50.681Z,10.68
2022-11-25T23:52:04.609Z,9.68
2022-11-25T23:57:15.688Z,18.55
